sensor_id;sensor_type;location;lat;lon;timestamp;P1;durP1;ratioP1;P2;durP2;ratioP2
72284;SDS011;60220;53.552;10.092;2023-04-25T00:00:07;6.35;;;2.97;;
72284;SDS011;60220;53.552;10.092;2023-04-25T00:02:38;7.00;;;3.17;;
72284;SDS011;60220;53.552;10.092;2023-04-25T00:05:06;8.85;;;3.13;;
72284;SDS011;60220;53.552;10.092;2023-04-25T00:07:34;7.93;;;3.25;;
72284;SDS011;60220;53.552;10.092;2023-04-25T00:10:03;7.32;;;3.10;;
72284;SDS011;60220;53.552;10.092;2023-04-25T00:12:30;10.20;;;2.95;;
72284;SDS011;60220;53.552;10.092;2023-04-25T00:14:58;6.55;;;2.88;;
72284;SDS011;60220;53.552;10.092;2023-04-25T00:17:25;5.47;;;3.17;;
72284;SDS011;60220;53.552;10.092;2023-04-25T00:19:54;7.20;;;3.38;;
72284;SDS011;60220;53.552;10.092;2023-04-25T00:22:22;9.15;;;3.35;;
72284;SDS011;60220;53.552;10.092;2023-04-25T00:24:49;6.82;;;3.30;;
72284;SDS011;60220;53.552;10.092;2023-04-25T00:27:15;12.35;;;3.47;;
72284;SDS011;60220;53.552;10.092;2023-04-25T00:29:42;6.40;;;2.72;;
72284;SDS011;60220;53.552;10.092;2023-04-25T00:32:11;7.72;;;2.72;;
72284;SDS011;60220;53.552;10.092;2023-04-25T00:34:39;12.30;;;3.13;;
72284;SDS011;60220;53.552;10.092;2023-04-25T00:37:05;15.82;;;4.03;;
72284;SDS011;60220;53.552;10.092;2023-04-25T00:39:33;8.45;;;2.70;;
72284;SDS011;60220;53.552;10.092;2023-04-25T00:42:00;11.95;;;3.08;;
72284;SDS011;60220;53.552;10.092;2023-04-25T00:44:29;14.38;;;3.65;;
72284;SDS011;60220;53.552;10.092;2023-04-25T00:46:57;12.27;;;2.80;;
72284;SDS011;60220;53.552;10.092;2023-04-25T00:49:24;16.35;;;3.72;;
72284;SDS011;60220;53.552;10.092;2023-04-25T00:51:51;14.85;;;3.45;;
72284;SDS011;60220;53.552;10.092;2023-04-25T00:54:17;16.33;;;2.47;;
72284;SDS011;60220;53.552;10.092;2023-04-25T00:56:48;11.88;;;2.78;;
72284;SDS011;60220;53.552;10.092;2023-04-25T00:59:15;10.18;;;2.42;;
72284;SDS011;60220;53.552;10.092;2023-04-25T01:01:43;22.38;;;3.58;;
72284;SDS011;60220;53.552;10.092;2023-04-25T01:04:10;19.80;;;3.20;;
72284;SDS011;60220;53.552;10.092;2023-04-25T01:06:37;8.48;;;2.85;;
72284;SDS011;60220;53.552;10.092;2023-04-25T01:09:04;15.48;;;2.78;;
72284;SDS011;60220;53.552;10.092;2023-04-25T01:11:31;14.70;;;3.22;;
72284;SDS011;60220;53.552;10.092;2023-04-25T01:13:59;11.27;;;3.03;;
72284;SDS011;60220;53.552;10.092;2023-04-25T01:16:27;20.33;;;2.92;;
72284;SDS011;60220;53.552;10.092;2023-04-25T01:18:54;14.95;;;3.53;;
72284;SDS011;60220;53.552;10.092;2023-04-25T01:21:22;13.68;;;3.00;;
72284;SDS011;60220;53.552;10.092;2023-04-25T01:23:51;16.42;;;3.08;;
72284;SDS011;60220;53.552;10.092;2023-04-25T01:26:19;20.17;;;3.78;;
72284;SDS011;60220;53.552;10.092;2023-04-25T01:32:30;15.27;;;3.63;;
72284;SDS011;60220;53.552;10.092;2023-04-25T01:35:03;15.65;;;3.10;;
72284;SDS011;60220;53.552;10.092;2023-04-25T01:37:36;24.98;;;3.42;;
72284;SDS011;60220;53.552;10.092;2023-04-25T01:40:06;13.48;;;3.50;;
72284;SDS011;60220;53.552;10.092;2023-04-25T01:42:34;10.57;;;3.22;;
72284;SDS011;60220;53.552;10.092;2023-04-25T01:45:02;23.05;;;3.35;;
72284;SDS011;60220;53.552;10.092;2023-04-25T01:47:30;15.25;;;3.05;;
72284;SDS011;60220;53.552;10.092;2023-04-25T01:49:56;16.80;;;2.83;;
72284;SDS011;60220;53.552;10.092;2023-04-25T01:52:23;17.00;;;3.47;;
72284;SDS011;60220;53.552;10.092;2023-04-25T01:54:51;17.88;;;3.83;;
72284;SDS011;60220;53.552;10.092;2023-04-25T01:57:18;15.05;;;3.47;;
72284;SDS011;60220;53.552;10.092;2023-04-25T01:59:46;11.90;;;3.35;;
72284;SDS011;60220;53.552;10.092;2023-04-25T02:02:12;17.67;;;4.25;;
72284;SDS011;60220;53.552;10.092;2023-04-25T02:04:39;15.32;;;2.38;;
72284;SDS011;60220;53.552;10.092;2023-04-25T02:07:06;11.80;;;2.80;;
72284;SDS011;60220;53.552;10.092;2023-04-25T02:13:14;15.02;;;3.08;;
72284;SDS011;60220;53.552;10.092;2023-04-25T02:15:43;10.77;;;2.22;;
72284;SDS011;60220;53.552;10.092;2023-04-25T02:18:12;24.13;;;3.17;;
72284;SDS011;60220;53.552;10.092;2023-04-25T02:20:41;20.98;;;3.50;;
72284;SDS011;60220;53.552;10.092;2023-04-25T02:23:08;10.35;;;2.50;;
72284;SDS011;60220;53.552;10.092;2023-04-25T02:25:35;18.02;;;3.88;;
72284;SDS011;60220;53.552;10.092;2023-04-25T02:28:04;16.98;;;3.25;;
72284;SDS011;60220;53.552;10.092;2023-04-25T02:30:35;16.23;;;3.25;;
72284;SDS011;60220;53.552;10.092;2023-04-25T02:33:04;23.63;;;3.80;;
72284;SDS011;60220;53.552;10.092;2023-04-25T02:35:31;13.35;;;3.28;;
72284;SDS011;60220;53.552;10.092;2023-04-25T02:37:58;10.93;;;2.78;;
72284;SDS011;60220;53.552;10.092;2023-04-25T02:40:27;20.80;;;2.38;;
72284;SDS011;60220;53.552;10.092;2023-04-25T02:42:54;10.00;;;3.55;;
72284;SDS011;60220;53.552;10.092;2023-04-25T02:45:20;10.57;;;2.42;;
72284;SDS011;60220;53.552;10.092;2023-04-25T02:47:51;19.05;;;3.00;;
72284;SDS011;60220;53.552;10.092;2023-04-25T02:50:18;19.30;;;5.03;;
72284;SDS011;60220;53.552;10.092;2023-04-25T02:52:45;11.13;;;3.97;;
72284;SDS011;60220;53.552;10.092;2023-04-25T02:55:12;21.30;;;3.78;;
72284;SDS011;60220;53.552;10.092;2023-04-25T02:57:39;8.93;;;2.80;;
72284;SDS011;60220;53.552;10.092;2023-04-25T03:00:06;10.15;;;2.20;;
72284;SDS011;60220;53.552;10.092;2023-04-25T03:02:36;16.48;;;3.33;;
72284;SDS011;60220;53.552;10.092;2023-04-25T03:05:04;18.60;;;6.00;;
72284;SDS011;60220;53.552;10.092;2023-04-25T03:07:31;15.02;;;3.33;;
72284;SDS011;60220;53.552;10.092;2023-04-25T03:09:57;11.75;;;3.40;;
72284;SDS011;60220;53.552;10.092;2023-04-25T03:20:23;20.10;;;6.20;;
72284;SDS011;60220;53.552;10.092;2023-04-25T03:22:49;16.42;;;3.30;;
72284;SDS011;60220;53.552;10.092;2023-04-25T03:25:18;23.42;;;6.35;;
72284;SDS011;60220;53.552;10.092;2023-04-25T03:27:45;11.88;;;2.33;;
72284;SDS011;60220;53.552;10.092;2023-04-25T03:30:11;16.08;;;3.70;;
72284;SDS011;60220;53.552;10.092;2023-04-25T03:32:38;12.82;;;2.92;;
72284;SDS011;60220;53.552;10.092;2023-04-25T03:35:05;8.88;;;3.45;;
72284;SDS011;60220;53.552;10.092;2023-04-25T03:37:34;13.15;;;2.92;;
72284;SDS011;60220;53.552;10.092;2023-04-25T03:40:00;13.15;;;2.85;;
72284;SDS011;60220;53.552;10.092;2023-04-25T03:42:29;13.70;;;2.80;;
72284;SDS011;60220;53.552;10.092;2023-04-25T03:45:00;13.02;;;3.13;;
72284;SDS011;60220;53.552;10.092;2023-04-25T03:47:27;10.65;;;3.40;;
72284;SDS011;60220;53.552;10.092;2023-04-25T03:49:53;18.25;;;2.88;;
72284;SDS011;60220;53.552;10.092;2023-04-25T03:52:20;6.20;;;2.53;;
72284;SDS011;60220;53.552;10.092;2023-04-25T03:54:48;5.57;;;2.47;;
72284;SDS011;60220;53.552;10.092;2023-04-25T03:57:15;14.57;;;3.08;;
72284;SDS011;60220;53.552;10.092;2023-04-25T03:59:41;10.75;;;2.97;;
72284;SDS011;60220;53.552;10.092;2023-04-25T04:02:11;15.70;;;3.20;;
72284;SDS011;60220;53.552;10.092;2023-04-25T04:04:42;15.13;;;3.10;;
72284;SDS011;60220;53.552;10.092;2023-04-25T04:07:09;10.13;;;2.78;;
72284;SDS011;60220;53.552;10.092;2023-04-25T04:09:36;9.27;;;2.83;;
72284;SDS011;60220;53.552;10.092;2023-04-25T04:12:07;13.23;;;2.42;;
72284;SDS011;60220;53.552;10.092;2023-04-25T04:14:33;22.98;;;2.80;;
72284;SDS011;60220;53.552;10.092;2023-04-25T04:17:00;14.32;;;2.92;;
72284;SDS011;60220;53.552;10.092;2023-04-25T04:19:27;15.43;;;2.50;;
72284;SDS011;60220;53.552;10.092;2023-04-25T04:21:53;19.40;;;2.95;;
72284;SDS011;60220;53.552;10.092;2023-04-25T04:24:20;8.70;;;2.17;;
72284;SDS011;60220;53.552;10.092;2023-04-25T04:26:47;17.52;;;2.88;;
72284;SDS011;60220;53.552;10.092;2023-04-25T04:29:17;11.50;;;3.45;;
72284;SDS011;60220;53.552;10.092;2023-04-25T04:31:47;9.48;;;2.78;;
72284;SDS011;60220;53.552;10.092;2023-04-25T04:34:14;15.57;;;5.10;;
72284;SDS011;60220;53.552;10.092;2023-04-25T04:36:44;6.40;;;2.17;;
72284;SDS011;60220;53.552;10.092;2023-04-25T04:39:13;13.10;;;3.03;;
72284;SDS011;60220;53.552;10.092;2023-04-25T04:41:40;9.90;;;3.08;;
72284;SDS011;60220;53.552;10.092;2023-04-25T04:44:08;8.05;;;2.40;;
72284;SDS011;60220;53.552;10.092;2023-04-25T04:46:39;11.65;;;2.38;;
72284;SDS011;60220;53.552;10.092;2023-04-25T04:49:07;17.17;;;3.38;;
72284;SDS011;60220;53.552;10.092;2023-04-25T04:51:33;9.90;;;2.05;;
72284;SDS011;60220;53.552;10.092;2023-04-25T04:54:01;7.20;;;2.65;;
72284;SDS011;60220;53.552;10.092;2023-04-25T04:56:31;14.77;;;2.58;;
72284;SDS011;60220;53.552;10.092;2023-04-25T04:58:58;5.00;;;1.77;;
72284;SDS011;60220;53.552;10.092;2023-04-25T05:01:25;12.10;;;2.47;;
72284;SDS011;60220;53.552;10.092;2023-04-25T05:03:53;14.95;;;4.43;;
72284;SDS011;60220;53.552;10.092;2023-04-25T05:06:27;14.60;;;2.92;;
72284;SDS011;60220;53.552;10.092;2023-04-25T05:08:55;10.70;;;2.30;;
72284;SDS011;60220;53.552;10.092;2023-04-25T05:11:22;10.68;;;2.25;;
72284;SDS011;60220;53.552;10.092;2023-04-25T05:13:50;8.45;;;2.60;;
72284;SDS011;60220;53.552;10.092;2023-04-25T05:16:18;13.80;;;2.75;;
72284;SDS011;60220;53.552;10.092;2023-04-25T05:18:47;12.13;;;2.55;;
72284;SDS011;60220;53.552;10.092;2023-04-25T05:21:15;9.98;;;2.90;;
72284;SDS011;60220;53.552;10.092;2023-04-25T05:23:42;12.48;;;2.80;;
72284;SDS011;60220;53.552;10.092;2023-04-25T05:26:08;3.55;;;1.92;;
72284;SDS011;60220;53.552;10.092;2023-04-25T05:28:39;11.02;;;2.72;;
72284;SDS011;60220;53.552;10.092;2023-04-25T05:31:06;8.27;;;2.10;;
72284;SDS011;60220;53.552;10.092;2023-04-25T05:33:33;11.80;;;3.47;;
72284;SDS011;60220;53.552;10.092;2023-04-25T05:35:59;10.48;;;2.05;;
72284;SDS011;60220;53.552;10.092;2023-04-25T05:38:27;5.55;;;1.85;;
72284;SDS011;60220;53.552;10.092;2023-04-25T05:40:54;8.48;;;1.90;;
72284;SDS011;60220;53.552;10.092;2023-04-25T05:43:21;9.02;;;2.17;;
72284;SDS011;60220;53.552;10.092;2023-04-25T05:45:48;6.40;;;2.15;;
72284;SDS011;60220;53.552;10.092;2023-04-25T05:48:15;11.32;;;3.25;;
72284;SDS011;60220;53.552;10.092;2023-04-25T05:50:42;9.68;;;2.88;;
72284;SDS011;60220;53.552;10.092;2023-04-25T05:53:11;6.82;;;2.47;;
72284;SDS011;60220;53.552;10.092;2023-04-25T05:55:39;11.05;;;2.70;;
72284;SDS011;60220;53.552;10.092;2023-04-25T05:58:06;10.27;;;2.63;;
72284;SDS011;60220;53.552;10.092;2023-04-25T06:00:32;9.05;;;2.85;;
72284;SDS011;60220;53.552;10.092;2023-04-25T06:02:59;18.23;;;3.22;;
72284;SDS011;60220;53.552;10.092;2023-04-25T06:05:26;7.60;;;2.63;;
72284;SDS011;60220;53.552;10.092;2023-04-25T06:07:53;10.50;;;3.28;;
72284;SDS011;60220;53.552;10.092;2023-04-25T06:10:20;10.05;;;3.20;;
72284;SDS011;60220;53.552;10.092;2023-04-25T06:12:49;6.88;;;2.45;;
72284;SDS011;60220;53.552;10.092;2023-04-25T06:15:18;9.07;;;2.75;;
72284;SDS011;60220;53.552;10.092;2023-04-25T06:17:44;12.18;;;2.42;;
72284;SDS011;60220;53.552;10.092;2023-04-25T06:20:11;11.10;;;2.45;;
72284;SDS011;60220;53.552;10.092;2023-04-25T06:22:39;11.50;;;2.33;;
72284;SDS011;60220;53.552;10.092;2023-04-25T06:25:08;4.93;;;1.98;;
72284;SDS011;60220;53.552;10.092;2023-04-25T06:27:35;8.13;;;2.05;;
72284;SDS011;60220;53.552;10.092;2023-04-25T06:30:03;12.45;;;2.33;;
72284;SDS011;60220;53.552;10.092;2023-04-25T06:32:32;12.80;;;2.35;;
72284;SDS011;60220;53.552;10.092;2023-04-25T06:34:59;6.22;;;1.60;;
72284;SDS011;60220;53.552;10.092;2023-04-25T06:37:26;9.38;;;2.58;;
72284;SDS011;60220;53.552;10.092;2023-04-25T06:39:52;5.00;;;2.20;;
72284;SDS011;60220;53.552;10.092;2023-04-25T06:42:19;11.18;;;2.40;;
72284;SDS011;60220;53.552;10.092;2023-04-25T06:44:46;9.82;;;2.47;;
72284;SDS011;60220;53.552;10.092;2023-04-25T06:47:14;8.70;;;2.90;;
72284;SDS011;60220;53.552;10.092;2023-04-25T06:49:41;8.27;;;2.53;;
72284;SDS011;60220;53.552;10.092;2023-04-25T06:52:08;7.85;;;2.35;;
72284;SDS011;60220;53.552;10.092;2023-04-25T06:54:35;4.82;;;1.85;;
72284;SDS011;60220;53.552;10.092;2023-04-25T06:57:02;7.07;;;1.92;;
72284;SDS011;60220;53.552;10.092;2023-04-25T06:59:29;9.27;;;1.92;;
72284;SDS011;60220;53.552;10.092;2023-04-25T07:01:56;9.05;;;1.73;;
72284;SDS011;60220;53.552;10.092;2023-04-25T07:04:24;10.45;;;2.60;;
72284;SDS011;60220;53.552;10.092;2023-04-25T07:06:50;8.80;;;3.03;;
72284;SDS011;60220;53.552;10.092;2023-04-25T07:09:18;7.30;;;2.05;;
72284;SDS011;60220;53.552;10.092;2023-04-25T07:11:45;14.93;;;2.33;;
72284;SDS011;60220;53.552;10.092;2023-04-25T07:14:14;6.30;;;1.75;;
72284;SDS011;60220;53.552;10.092;2023-04-25T07:16:41;10.02;;;2.63;;
72284;SDS011;60220;53.552;10.092;2023-04-25T07:19:07;12.07;;;2.22;;
72284;SDS011;60220;53.552;10.092;2023-04-25T07:21:36;8.05;;;1.98;;
72284;SDS011;60220;53.552;10.092;2023-04-25T07:24:05;13.43;;;3.28;;
72284;SDS011;60220;53.552;10.092;2023-04-25T07:26:32;14.98;;;2.97;;
72284;SDS011;60220;53.552;10.092;2023-04-25T07:28:59;10.95;;;2.53;;
72284;SDS011;60220;53.552;10.092;2023-04-25T07:31:28;3.45;;;1.92;;
72284;SDS011;60220;53.552;10.092;2023-04-25T07:33:55;10.32;;;2.47;;
72284;SDS011;60220;53.552;10.092;2023-04-25T07:36:22;7.15;;;2.03;;
72284;SDS011;60220;53.552;10.092;2023-04-25T07:38:50;8.20;;;2.20;;
72284;SDS011;60220;53.552;10.092;2023-04-25T07:41:19;10.32;;;2.15;;
72284;SDS011;60220;53.552;10.092;2023-04-25T07:43:48;9.55;;;2.00;;
72284;SDS011;60220;53.552;10.092;2023-04-25T07:46:15;4.80;;;1.40;;
72284;SDS011;60220;53.552;10.092;2023-04-25T07:48:41;7.47;;;1.67;;
72284;SDS011;60220;53.552;10.092;2023-04-25T07:51:09;13.73;;;2.17;;
72284;SDS011;60220;53.552;10.092;2023-04-25T07:53:35;8.35;;;2.33;;
72284;SDS011;60220;53.552;10.092;2023-04-25T07:56:04;5.15;;;1.15;;
72284;SDS011;60220;53.552;10.092;2023-04-25T07:58:31;10.05;;;1.42;;
72284;SDS011;60220;53.552;10.092;2023-04-25T08:00:58;7.13;;;1.73;;
72284;SDS011;60220;53.552;10.092;2023-04-25T08:03:24;5.82;;;1.63;;
72284;SDS011;60220;53.552;10.092;2023-04-25T08:05:51;8.40;;;1.80;;
72284;SDS011;60220;53.552;10.092;2023-04-25T08:08:18;4.97;;;1.77;;
72284;SDS011;60220;53.552;10.092;2023-04-25T08:10:45;5.05;;;1.33;;
72284;SDS011;60220;53.552;10.092;2023-04-25T08:13:16;7.88;;;1.77;;
72284;SDS011;60220;53.552;10.092;2023-04-25T08:15:43;13.27;;;1.75;;
72284;SDS011;60220;53.552;10.092;2023-04-25T08:18:10;8.23;;;1.95;;
72284;SDS011;60220;53.552;10.092;2023-04-25T08:20:38;14.60;;;1.95;;
72284;SDS011;60220;53.552;10.092;2023-04-25T08:23:05;9.88;;;2.50;;
72284;SDS011;60220;53.552;10.092;2023-04-25T08:25:32;9.07;;;1.77;;
72284;SDS011;60220;53.552;10.092;2023-04-25T08:27:59;5.90;;;1.75;;
72284;SDS011;60220;53.552;10.092;2023-04-25T08:30:29;10.23;;;1.85;;
72284;SDS011;60220;53.552;10.092;2023-04-25T08:32:56;12.07;;;2.20;;
72284;SDS011;60220;53.552;10.092;2023-04-25T08:35:25;8.45;;;1.42;;
72284;SDS011;60220;53.552;10.092;2023-04-25T08:37:51;6.13;;;1.48;;
72284;SDS011;60220;53.552;10.092;2023-04-25T08:40:18;5.43;;;1.13;;
72284;SDS011;60220;53.552;10.092;2023-04-25T08:42:51;11.30;;;2.33;;
72284;SDS011;60220;53.552;10.092;2023-04-25T08:45:19;4.20;;;1.30;;
72284;SDS011;60220;53.552;10.092;2023-04-25T08:47:50;3.13;;;1.17;;
72284;SDS011;60220;53.552;10.092;2023-04-25T08:50:18;8.35;;;1.10;;
72284;SDS011;60220;53.552;10.092;2023-04-25T08:52:47;4.40;;;1.55;;
72284;SDS011;60220;53.552;10.092;2023-04-25T08:55:17;4.30;;;1.48;;
72284;SDS011;60220;53.552;10.092;2023-04-25T08:57:44;7.85;;;1.55;;
72284;SDS011;60220;53.552;10.092;2023-04-25T09:00:12;11.98;;;1.63;;
72284;SDS011;60220;53.552;10.092;2023-04-25T09:02:39;11.63;;;1.73;;
72284;SDS011;60220;53.552;10.092;2023-04-25T09:05:10;7.68;;;1.63;;
72284;SDS011;60220;53.552;10.092;2023-04-25T09:07:38;11.57;;;1.90;;
72284;SDS011;60220;53.552;10.092;2023-04-25T09:10:08;10.95;;;1.30;;
72284;SDS011;60220;53.552;10.092;2023-04-25T09:12:35;5.68;;;1.35;;
72284;SDS011;60220;53.552;10.092;2023-04-25T09:15:03;9.10;;;1.58;;
72284;SDS011;60220;53.552;10.092;2023-04-25T09:17:31;9.13;;;1.30;;
72284;SDS011;60220;53.552;10.092;2023-04-25T09:20:05;9.05;;;1.42;;
72284;SDS011;60220;53.552;10.092;2023-04-25T09:22:37;7.22;;;1.30;;
72284;SDS011;60220;53.552;10.092;2023-04-25T09:25:07;4.07;;;0.75;;
72284;SDS011;60220;53.552;10.092;2023-04-25T09:27:35;9.60;;;1.50;;
72284;SDS011;60220;53.552;10.092;2023-04-25T09:30:02;5.38;;;1.08;;
72284;SDS011;60220;53.552;10.092;2023-04-25T09:32:30;5.70;;;1.08;;
72284;SDS011;60220;53.552;10.092;2023-04-25T09:34:57;9.30;;;1.30;;
72284;SDS011;60220;53.552;10.092;2023-04-25T09:37:26;5.90;;;1.45;;
72284;SDS011;60220;53.552;10.092;2023-04-25T09:39:56;1.33;;;1.00;;
72284;SDS011;60220;53.552;10.092;2023-04-25T09:42:25;3.28;;;1.33;;
72284;SDS011;60220;53.552;10.092;2023-04-25T09:44:54;13.88;;;1.42;;
72284;SDS011;60220;53.552;10.092;2023-04-25T09:47:22;12.48;;;1.55;;
72284;SDS011;60220;53.552;10.092;2023-04-25T09:49:50;2.75;;;1.27;;
72284;SDS011;60220;53.552;10.092;2023-04-25T09:52:18;8.57;;;1.80;;
72284;SDS011;60220;53.552;10.092;2023-04-25T09:54:47;6.75;;;1.60;;
72284;SDS011;60220;53.552;10.092;2023-04-25T09:57:16;7.32;;;1.83;;
72284;SDS011;60220;53.552;10.092;2023-04-25T09:59:44;8.30;;;1.63;;
72284;SDS011;60220;53.552;10.092;2023-04-25T10:02:12;11.73;;;1.63;;
72284;SDS011;60220;53.552;10.092;2023-04-25T10:04:41;10.27;;;2.38;;
72284;SDS011;60220;53.552;10.092;2023-04-25T10:07:10;3.92;;;1.60;;
72284;SDS011;60220;53.552;10.092;2023-04-25T10:09:39;8.60;;;2.30;;
72284;SDS011;60220;53.552;10.092;2023-04-25T10:12:07;12.68;;;1.95;;
72284;SDS011;60220;53.552;10.092;2023-04-25T10:14:34;11.63;;;1.98;;
72284;SDS011;60220;53.552;10.092;2023-04-25T10:17:01;6.95;;;2.47;;
72284;SDS011;60220;53.552;10.092;2023-04-25T10:19:29;6.32;;;2.33;;
72284;SDS011;60220;53.552;10.092;2023-04-25T10:21:58;7.65;;;1.58;;
72284;SDS011;60220;53.552;10.092;2023-04-25T10:24:33;8.43;;;2.20;;
72284;SDS011;60220;53.552;10.092;2023-04-25T10:27:01;3.20;;;1.40;;
72284;SDS011;60220;53.552;10.092;2023-04-25T10:29:31;5.28;;;1.65;;
72284;SDS011;60220;53.552;10.092;2023-04-25T10:31:58;4.85;;;0.82;;
72284;SDS011;60220;53.552;10.092;2023-04-25T10:34:25;2.42;;;0.98;;
72284;SDS011;60220;53.552;10.092;2023-04-25T10:37:04;12.15;;;1.20;;
72284;SDS011;60220;53.552;10.092;2023-04-25T10:39:34;6.45;;;0.82;;
72284;SDS011;60220;53.552;10.092;2023-04-25T10:42:02;8.18;;;1.23;;
72284;SDS011;60220;53.552;10.092;2023-04-25T10:44:32;3.38;;;1.23;;
72284;SDS011;60220;53.552;10.092;2023-04-25T10:47:00;3.88;;;0.80;;
72284;SDS011;60220;53.552;10.092;2023-04-25T10:49:29;11.13;;;1.55;;
72284;SDS011;60220;53.552;10.092;2023-04-25T10:54:40;7.03;;;1.35;;
72284;SDS011;60220;53.552;10.092;2023-04-25T10:59:55;8.75;;;1.48;;
72284;SDS011;60220;53.552;10.092;2023-04-25T11:02:25;7.15;;;1.27;;
72284;SDS011;60220;53.552;10.092;2023-04-25T11:04:53;5.80;;;1.73;;
72284;SDS011;60220;53.552;10.092;2023-04-25T11:07:23;4.85;;;1.27;;
72284;SDS011;60220;53.552;10.092;2023-04-25T11:10:02;3.42;;;1.02;;
72284;SDS011;60220;53.552;10.092;2023-04-25T11:12:30;9.35;;;1.73;;
72284;SDS011;60220;53.552;10.092;2023-04-25T11:15:05;7.20;;;1.38;;
72284;SDS011;60220;53.552;10.092;2023-04-25T11:17:33;5.60;;;0.90;;
72284;SDS011;60220;53.552;10.092;2023-04-25T11:20:00;2.95;;;0.63;;
72284;SDS011;60220;53.552;10.092;2023-04-25T11:22:28;4.45;;;1.10;;
72284;SDS011;60220;53.552;10.092;2023-04-25T11:24:55;6.70;;;1.45;;
72284;SDS011;60220;53.552;10.092;2023-04-25T11:27:21;6.05;;;1.10;;
72284;SDS011;60220;53.552;10.092;2023-04-25T11:29:49;4.90;;;1.45;;
72284;SDS011;60220;53.552;10.092;2023-04-25T11:32:18;8.55;;;1.67;;
72284;SDS011;60220;53.552;10.092;2023-04-25T11:34:45;12.20;;;1.80;;
72284;SDS011;60220;53.552;10.092;2023-04-25T11:37:13;6.93;;;1.40;;
72284;SDS011;60220;53.552;10.092;2023-04-25T11:39:42;7.53;;;1.27;;
72284;SDS011;60220;53.552;10.092;2023-04-25T11:42:13;6.70;;;1.00;;
72284;SDS011;60220;53.552;10.092;2023-04-25T11:44:40;3.55;;;0.65;;
72284;SDS011;60220;53.552;10.092;2023-04-25T11:47:07;4.20;;;1.48;;
72284;SDS011;60220;53.552;10.092;2023-04-25T11:49:37;5.30;;;1.42;;
72284;SDS011;60220;53.552;10.092;2023-04-25T11:52:05;4.80;;;1.35;;
72284;SDS011;60220;53.552;10.092;2023-04-25T11:54:34;3.15;;;1.10;;
72284;SDS011;60220;53.552;10.092;2023-04-25T11:57:01;5.22;;;0.93;;
72284;SDS011;60220;53.552;10.092;2023-04-25T11:59:29;5.25;;;0.95;;
72284;SDS011;60220;53.552;10.092;2023-04-25T12:01:56;4.28;;;0.70;;
72284;SDS011;60220;53.552;10.092;2023-04-25T12:04:25;2.58;;;0.60;;
72284;SDS011;60220;53.552;10.092;2023-04-25T12:06:53;6.90;;;0.77;;
72284;SDS011;60220;53.552;10.092;2023-04-25T12:09:27;4.55;;;1.13;;
72284;SDS011;60220;53.552;10.092;2023-04-25T12:11:56;1.98;;;0.73;;
72284;SDS011;60220;53.552;10.092;2023-04-25T12:14:24;9.20;;;1.23;;
72284;SDS011;60220;53.552;10.092;2023-04-25T12:16:55;5.13;;;1.77;;
72284;SDS011;60220;53.552;10.092;2023-04-25T12:19:23;3.60;;;0.98;;
72284;SDS011;60220;53.552;10.092;2023-04-25T12:21:51;7.57;;;0.85;;
72284;SDS011;60220;53.552;10.092;2023-04-25T12:24:22;5.38;;;1.27;;
72284;SDS011;60220;53.552;10.092;2023-04-25T12:26:51;3.55;;;0.80;;
72284;SDS011;60220;53.552;10.092;2023-04-25T12:29:20;3.63;;;0.60;;
72284;SDS011;60220;53.552;10.092;2023-04-25T12:31:48;8.68;;;1.60;;
72284;SDS011;60220;53.552;10.092;2023-04-25T12:34:16;3.08;;;0.75;;
72284;SDS011;60220;53.552;10.092;2023-04-25T12:36:43;7.32;;;1.08;;
72284;SDS011;60220;53.552;10.092;2023-04-25T12:39:14;4.45;;;0.73;;
72284;SDS011;60220;53.552;10.092;2023-04-25T12:41:42;4.80;;;0.93;;
72284;SDS011;60220;53.552;10.092;2023-04-25T12:44:09;1.38;;;0.43;;
72284;SDS011;60220;53.552;10.092;2023-04-25T12:46:36;2.05;;;0.70;;
72284;SDS011;60220;53.552;10.092;2023-04-25T12:49:03;4.18;;;1.00;;
72284;SDS011;60220;53.552;10.092;2023-04-25T12:51:31;5.18;;;0.60;;
72284;SDS011;60220;53.552;10.092;2023-04-25T12:53:58;4.68;;;0.85;;
72284;SDS011;60220;53.552;10.092;2023-04-25T12:56:24;1.65;;;0.68;;
72284;SDS011;60220;53.552;10.092;2023-04-25T12:58:53;1.38;;;0.50;;
72284;SDS011;60220;53.552;10.092;2023-04-25T13:01:20;6.18;;;1.33;;
72284;SDS011;60220;53.552;10.092;2023-04-25T13:03:49;4.00;;;1.10;;
72284;SDS011;60220;53.552;10.092;2023-04-25T13:06:16;5.35;;;1.17;;
72284;SDS011;60220;53.552;10.092;2023-04-25T13:08:44;2.88;;;0.95;;
72284;SDS011;60220;53.552;10.092;2023-04-25T13:11:11;8.02;;;0.98;;
72284;SDS011;60220;53.552;10.092;2023-04-25T13:13:37;5.35;;;1.10;;
72284;SDS011;60220;53.552;10.092;2023-04-25T13:16:08;2.88;;;0.80;;
72284;SDS011;60220;53.552;10.092;2023-04-25T13:18:35;8.80;;;1.27;;
72284;SDS011;60220;53.552;10.092;2023-04-25T13:21:02;6.32;;;1.00;;
72284;SDS011;60220;53.552;10.092;2023-04-25T13:23:29;8.95;;;1.80;;
72284;SDS011;60220;53.552;10.092;2023-04-25T13:25:58;4.03;;;0.90;;
72284;SDS011;60220;53.552;10.092;2023-04-25T13:28:26;9.30;;;1.20;;
72284;SDS011;60220;53.552;10.092;2023-04-25T13:30:53;6.18;;;1.33;;
72284;SDS011;60220;53.552;10.092;2023-04-25T13:33:21;3.72;;;0.55;;
72284;SDS011;60220;53.552;10.092;2023-04-25T13:35:48;3.13;;;0.60;;
72284;SDS011;60220;53.552;10.092;2023-04-25T13:38:20;7.03;;;2.00;;
72284;SDS011;60220;53.552;10.092;2023-04-25T13:40:51;2.30;;;0.85;;
72284;SDS011;60220;53.552;10.092;2023-04-25T13:43:18;4.40;;;1.35;;
72284;SDS011;60220;53.552;10.092;2023-04-25T13:45:47;4.35;;;1.15;;
72284;SDS011;60220;53.552;10.092;2023-04-25T13:48:17;11.45;;;1.10;;
72284;SDS011;60220;53.552;10.092;2023-04-25T13:50:46;5.10;;;1.00;;
72284;SDS011;60220;53.552;10.092;2023-04-25T13:53:13;9.98;;;1.27;;
72284;SDS011;60220;53.552;10.092;2023-04-25T13:55:42;9.57;;;1.63;;
72284;SDS011;60220;53.552;10.092;2023-04-25T13:58:09;7.05;;;1.33;;
72284;SDS011;60220;53.552;10.092;2023-04-25T14:00:36;9.02;;;2.60;;
72284;SDS011;60220;53.552;10.092;2023-04-25T14:03:05;4.57;;;0.95;;
72284;SDS011;60220;53.552;10.092;2023-04-25T14:05:32;4.35;;;1.02;;
72284;SDS011;60220;53.552;10.092;2023-04-25T14:08:05;4.43;;;0.98;;
72284;SDS011;60220;53.552;10.092;2023-04-25T14:10:32;7.80;;;1.63;;
72284;SDS011;60220;53.552;10.092;2023-04-25T14:13:01;5.97;;;1.52;;
72284;SDS011;60220;53.552;10.092;2023-04-25T14:15:29;4.57;;;1.02;;
72284;SDS011;60220;53.552;10.092;2023-04-25T14:17:56;9.05;;;1.30;;
72284;SDS011;60220;53.552;10.092;2023-04-25T14:20:23;4.30;;;0.98;;
72284;SDS011;60220;53.552;10.092;2023-04-25T14:22:50;3.88;;;1.02;;
72284;SDS011;60220;53.552;10.092;2023-04-25T14:25:20;5.90;;;1.35;;
72284;SDS011;60220;53.552;10.092;2023-04-25T14:27:47;6.07;;;1.25;;
72284;SDS011;60220;53.552;10.092;2023-04-25T14:30:15;4.38;;;1.25;;
72284;SDS011;60220;53.552;10.092;2023-04-25T14:32:44;4.90;;;1.40;;
72284;SDS011;60220;53.552;10.092;2023-04-25T14:35:13;8.15;;;1.48;;
72284;SDS011;60220;53.552;10.092;2023-04-25T14:37:40;8.60;;;1.20;;
72284;SDS011;60220;53.552;10.092;2023-04-25T14:40:08;9.10;;;1.48;;
72284;SDS011;60220;53.552;10.092;2023-04-25T14:42:38;5.90;;;0.85;;
72284;SDS011;60220;53.552;10.092;2023-04-25T14:45:05;12.50;;;1.05;;
72284;SDS011;60220;53.552;10.092;2023-04-25T14:47:33;6.18;;;1.13;;
72284;SDS011;60220;53.552;10.092;2023-04-25T14:50:03;12.43;;;1.13;;
72284;SDS011;60220;53.552;10.092;2023-04-25T14:52:30;2.47;;;0.75;;